CheckWX is a tool to help pilots better visualize weather data.  It is not intended as a substitute for an official pre-flight weather briefing.

11:42:42 UTC

HTSO METAR
Songea Airport
Songea, Tanzania
Current

2 hours ago

HTSO 141000Z 12010KT 9999 SCT026 FEW027CB 28/16 Q1021
Observed
Oct-14 @ 10:00 UTC
Wind
  • 120° at 10 KTS
Visibility
10,000+ meters
Flight Rules
VFR
Cloud Levels
  • Scattered at 2,600' AGL
  • Few at 2,700' AGL
Temperature
28°C / 82°F
Dewpoint
16°C / 61°F
Heat Index
28°C / 82°F
Humidity
48%
Altimeter
30.15" Hg
Pressure
1020.92 hPa
Previous

3 hours ago

HTSO 140900Z 10010KT 9999 BKN020 FEW021CB 26/16 Q1022
Observed
Oct-14 @ 09:00 UTC
Wind
  • 100° at 10 KTS
Visibility
10,000+ meters
Flight Rules
MVFR
Cloud Levels
  • Broken at 2,000' AGL
  • Few at 2,100' AGL
Temperature
26°C / 79°F
Dewpoint
16°C / 61°F
Humidity
54%
Altimeter
30.18" Hg
Pressure
1021.92 hPa
Previous

5 hours ago

HTSO 140700Z 09010KT 9999 SCT017 FEW018CB 24/1 Q1022
Observed
Oct-14 @ 07:00 UTC
Wind
  • 090° at 10 KTS
Visibility
10,000+ meters
Flight Rules
VFR
Cloud Levels
  • Scattered at 1,700' AGL
  • Few at 1,800' AGL
Temperature
24°C / 75°F
Altimeter
30.18" Hg
Pressure
1021.92 hPa